Time;durP1;ratioP1;P1;durP2;ratioP2;P2;SDS_P1;SDS_P2;PMS_P1;PMS_P2;Temp;Humidity;BMP_temperature;BMP_pressure;BME280_temperature;BME280_humidity;BME280_pressure;Samples;Min_cycle;Max_cycle;Signal;HPM_P1;HPM_P2
2022/10/24 00:00:48;;;;;;;31.70;8.05;;;;;;;;;;4969784;28;20038;-44
2022/10/24 00:03:14;;;;;;;21.05;6.97;;;;;;;;;;4968680;28;20502;-46
2022/10/24 00:05:45;;;;;;;24.15;8.40;;;;;;;;;;4964997;28;20027;-46
2022/10/24 00:08:10;;;;;;;23.52;7.15;;;;;;;;;;4968727;28;20058;-46
2022/10/24 00:10:39;;;;;;;24.15;7.53;;;;;;;;;;4966588;28;20476;-46
2022/10/24 00:13:05;;;;;;;23.38;6.63;;;;;;;;;;4966923;28;20082;-50
2022/10/24 00:15:31;;;;;;;20.75;6.63;;;;;;;;;;4967968;28;20499;-50
2022/10/24 00:17:56;;;;;;;29.17;6.43;;;;;;;;;;4968631;28;20053;-47
2022/10/24 00:20:21;;;;;;;15.23;6.05;;;;;;;;;;4969389;28;20027;-45
2022/10/24 00:22:47;;;;;;;25.83;7.10;;;;;;;;;;4968705;28;20069;-45
2022/10/24 00:25:12;;;;;;;23.70;7.63;;;;;;;;;;4968638;28;20522;-44
2022/10/24 00:27:37;;;;;;;22.88;7.20;;;;;;;;;;4967921;28;20039;-44
2022/10/24 00:30:04;;;;;;;35.80;6.80;;;;;;;;;;4966563;28;20023;-46
2022/10/24 00:32:29;;;;;;;26.02;7.25;;;;;;;;;;4967109;28;20054;-49
2022/10/24 00:34:55;;;;;;;24.80;7.78;;;;;;;;;;4969022;28;20415;-46
2022/10/24 00:37:20;;;;;;;33.47;7.70;;;;;;;;;;4969100;28;20129;-45
2022/10/24 00:39:45;;;;;;;31.45;7.18;;;;;;;;;;4969739;28;20018;-47
2022/10/24 00:42:11;;;;;;;24.67;7.32;;;;;;;;;;4968314;28;20557;-49
2022/10/24 00:44:38;;;;;;;28.48;7.25;;;;;;;;;;4968370;28;20051;-45
2022/10/24 00:47:10;;;;;;;24.88;6.90;;;;;;;;;;4964724;28;20041;-45
2022/10/24 00:49:44;;;;;;;31.27;7.57;;;;;;;;;;4966970;28;20027;-50
2022/10/24 00:52:12;;;;;;;30.73;7.35;;;;;;;;;;4967221;28;20059;-52
2022/10/24 00:54:39;;;;;;;25.20;7.07;;;;;;;;;;4966693;28;20041;-44
2022/10/24 00:57:16;;;;;;;24.25;7.07;;;;;;;;;;4971209;28;20046;-49
2022/10/24 00:59:44;;;;;;;22.92;7.03;;;;;;;;;;4973366;28;20133;-47
2022/10/24 01:02:09;;;;;;;33.55;7.75;;;;;;;;;;4972997;28;20517;-48
2022/10/24 01:04:35;;;;;;;23.05;6.63;;;;;;;;;;4974151;28;20047;-44
2022/10/24 01:07:09;;;;;;;24.25;7.93;;;;;;;;;;4973181;28;20542;-50
2022/10/24 01:09:49;;;;;;;15.35;6.40;;;;;;;;;;4975417;28;20030;-46
2022/10/24 01:12:36;;;;;;;26.75;8.15;;;;;;;;;;4974339;28;20042;-43
2022/10/24 01:15:41;;;;;;;22.17;7.03;;;;;;;;;;4974617;28;20031;-46
2022/10/24 01:18:27;;;;;;;27.02;7.35;;;;;;;;;;4971865;28;20133;-45
2022/10/24 01:21:07;;;;;;;28.42;7.75;;;;;;;;;;4971925;28;20161;-49
2022/10/24 01:23:33;;;;;;;16.27;6.88;;;;;;;;;;4973657;28;20038;-46
2022/10/24 01:26:10;;;;;;;18.80;7.00;;;;;;;;;;4972282;28;20546;-44
2022/10/24 01:28:44;;;;;;;23.65;6.57;;;;;;;;;;4970484;28;20039;-45
2022/10/24 01:31:25;;;;;;;17.13;6.85;;;;;;;;;;4972626;28;20104;-49
2022/10/24 01:33:58;;;;;;;20.35;7.03;;;;;;;;;;4975301;28;20015;-49
2022/10/24 01:36:31;;;;;;;26.75;8.05;;;;;;;;;;4972650;28;20039;-50
2022/10/24 01:39:02;;;;;;;24.95;7.50;;;;;;;;;;4975640;28;20038;-49
2022/10/24 01:41:30;;;;;;;23.63;7.75;;;;;;;;;;4972270;28;20050;-49
2022/10/24 01:44:01;;;;;;;20.60;7.47;;;;;;;;;;4974134;28;20031;-52
2022/10/24 01:46:32;;;;;;;31.08;8.70;;;;;;;;;;4973734;28;20454;-45
2022/10/24 01:49:04;;;;;;;25.10;7.87;;;;;;;;;;4974009;28;20085;-45
2022/10/24 01:51:32;;;;;;;19.92;7.00;;;;;;;;;;4969222;28;20102;-49
2022/10/24 01:53:58;;;;;;;29.70;7.35;;;;;;;;;;4971853;28;20031;-46
2022/10/24 01:56:24;;;;;;;27.67;8.07;;;;;;;;;;4972789;28;20042;-45
2022/10/24 01:58:50;;;;;;;35.33;8.10;;;;;;;;;;4975147;28;20110;-51
2022/10/24 02:01:21;;;;;;;27.73;9.43;;;;;;;;;;4973909;28;20131;-48
2022/10/24 02:03:54;;;;;;;24.50;7.35;;;;;;;;;;4972474;28;20035;-49
2022/10/24 02:06:24;;;;;;;34.92;7.75;;;;;;;;;;4973506;28;20101;-45
2022/10/24 02:08:57;;;;;;;22.40;7.40;;;;;;;;;;4969057;28;20026;-48
2022/10/24 02:11:22;;;;;;;25.60;7.45;;;;;;;;;;4971521;28;20491;-46
2022/10/24 02:13:58;;;;;;;20.17;6.78;;;;;;;;;;4970534;28;20042;-47
2022/10/24 02:16:24;;;;;;;17.60;7.57;;;;;;;;;;4967108;28;20129;-48
2022/10/24 02:18:53;;;;;;;28.08;7.38;;;;;;;;;;4971984;28;20077;-43
2022/10/24 02:21:36;;;;;;;18.15;7.00;;;;;;;;;;4968470;28;20042;-45
2022/10/24 02:24:27;;;;;;;20.38;7.00;;;;;;;;;;4970896;28;20483;-49
2022/10/24 02:26:57;;;;;;;27.00;8.23;;;;;;;;;;4968963;28;20065;-48
2022/10/24 02:29:43;;;;;;;26.90;7.22;;;;;;;;;;4968951;28;20027;-45
2022/10/24 02:32:12;;;;;;;29.13;7.60;;;;;;;;;;4968463;28;20129;-43
2022/10/24 02:34:40;;;;;;;22.27;7.28;;;;;;;;;;4970599;28;20387;-43
2022/10/24 02:37:08;;;;;;;29.13;7.57;;;;;;;;;;4968537;28;20249;-50
2022/10/24 02:39:35;;;;;;;28.38;8.50;;;;;;;;;;4969168;28;20026;-48
2022/10/24 02:42:02;;;;;;;22.33;8.10;;;;;;;;;;4969653;28;20035;-47
2022/10/24 02:44:29;;;;;;;26.70;7.03;;;;;;;;;;4970530;28;20038;-44
2022/10/24 02:46:57;;;;;;;19.33;6.93;;;;;;;;;;4969358;28;20039;-48
2022/10/24 02:49:23;;;;;;;21.40;8.15;;;;;;;;;;4969707;28;20058;-44
2022/10/24 02:51:50;;;;;;;24.15;8.07;;;;;;;;;;4967823;28;20557;-50
2022/10/24 02:54:15;;;;;;;28.02;7.45;;;;;;;;;;4969356;28;20480;-44
2022/10/24 02:56:47;;;;;;;23.42;7.45;;;;;;;;;;4968751;28;20126;-45
2022/10/24 02:59:12;;;;;;;;;;;;;;;;;;4969150;28;20063;-50
2022/10/24 03:01:38;;;;;;;21.17;7.50;;;;;;;;;;4969363;28;20374;-45
2022/10/24 03:04:03;;;;;;;23.27;7.65;;;;;;;;;;4969605;28;20101;-45
2022/10/24 03:06:29;;;;;;;38.53;7.53;;;;;;;;;;4967280;28;20047;-48
2022/10/24 03:08:54;;;;;;;24.20;8.15;;;;;;;;;;4968931;28;20030;-43
2022/10/24 03:11:20;;;;;;;20.70;7.10;;;;;;;;;;4969998;28;20042;-46
2022/10/24 03:13:45;;;;;;;27.35;7.78;;;;;;;;;;4970002;28;20085;-47
2022/10/24 03:16:10;;;;;;;26.42;7.43;;;;;;;;;;4966191;28;20494;-46
2022/10/24 03:18:36;;;;;;;29.75;7.88;;;;;;;;;;4969621;28;20042;-49
2022/10/24 03:21:01;;;;;;;23.88;7.45;;;;;;;;;;4968582;28;20030;-45
2022/10/24 03:23:27;;;;;;;24.98;7.72;;;;;;;;;;4968760;28;20050;-45
2022/10/24 03:25:55;;;;;;;29.85;7.50;;;;;;;;;;4967946;28;20483;-50
2022/10/24 03:28:20;;;;;;;19.40;7.03;;;;;;;;;;4968995;28;20034;-43
2022/10/24 03:30:46;;;;;;;24.00;7.70;;;;;;;;;;4963145;28;20023;-49
2022/10/24 03:33:11;;;;;;;22.55;7.10;;;;;;;;;;4966633;28;20090;-46
2022/10/24 03:35:37;;;;;;;30.25;8.10;;;;;;;;;;4967297;28;20365;-45
2022/10/24 03:38:02;;;;;;;29.67;7.47;;;;;;;;;;4968268;28;20046;-45
2022/10/24 03:40:27;;;;;;;26.08;7.55;;;;;;;;;;4968728;28;20033;-46
2022/10/24 03:42:53;;;;;;;26.67;6.97;;;;;;;;;;4968550;28;20078;-49
2022/10/24 03:45:18;;;;;;;25.42;7.25;;;;;;;;;;4968094;28;20057;-46
2022/10/24 03:47:43;;;;;;;23.13;7.10;;;;;;;;;;4965673;28;20039;-44
2022/10/24 03:50:09;;;;;;;28.60;8.27;;;;;;;;;;4967009;28;20031;-45
2022/10/24 03:52:34;;;;;;;18.65;7.00;;;;;;;;;;4968812;28;20031;-46
2022/10/24 03:54:59;;;;;;;26.30;7.90;;;;;;;;;;4969313;28;20153;-47
2022/10/24 03:57:25;;;;;;;15.82;7.00;;;;;;;;;;4968296;28;20403;-49
2022/10/24 03:59:50;;;;;;;25.73;8.02;;;;;;;;;;4969566;28;20027;-46
2022/10/24 04:02:16;;;;;;;33.58;8.43;;;;;;;;;;4969320;28;20050;-48
2022/10/24 04:04:41;;;;;;;18.10;6.88;;;;;;;;;;4966885;28;20122;-46
2022/10/24 04:07:07;;;;;;;21.88;8.05;;;;;;;;;;4968241;28;20047;-46
2022/10/24 04:09:32;;;;;;;33.97;7.80;;;;;;;;;;4967551;28;20031;-45
2022/10/24 04:11:58;;;;;;;25.60;7.82;;;;;;;;;;4968364;28;20491;-50
2022/10/24 04:14:23;;;;;;;30.38;7.55;;;;;;;;;;4967535;28;20593;-51
2022/10/24 04:16:49;;;;;;;21.77;7.70;;;;;;;;;;4966897;28;20038;-45
2022/10/24 04:19:16;;;;;;;22.83;7.38;;;;;;;;;;4968045;28;20019;-44
2022/10/24 04:21:43;;;;;;;16.42;7.13;;;;;;;;;;4965493;28;20038;-51
2022/10/24 04:24:09;;;;;;;21.23;7.78;;;;;;;;;;4967058;28;20772;-43
2022/10/24 04:26:34;;;;;;;19.58;8.02;;;;;;;;;;4966969;28;20129;-49
2022/10/24 04:29:00;;;;;;;23.27;7.68;;;;;;;;;;4968223;28;20559;-48
2022/10/24 04:31:25;;;;;;;32.38;8.05;;;;;;;;;;4968283;28;20101;-48
2022/10/24 04:33:50;;;;;;;27.25;8.48;;;;;;;;;;4967953;28;20045;-45
2022/10/24 04:36:16;;;;;;;21.85;7.22;;;;;;;;;;4965623;28;20126;-50
2022/10/24 04:38:41;;;;;;;24.10;8.23;;;;;;;;;;4967617;28;20034;-47
2022/10/24 04:41:06;;;;;;;22.92;7.20;;;;;;;;;;4967432;28;20046;-44
2022/10/24 04:43:32;;;;;;;23.08;7.72;;;;;;;;;;4965181;28;20031;-44
2022/10/24 04:45:57;;;;;;;25.88;7.50;;;;;;;;;;4963606;28;20089;-44
2022/10/24 04:48:23;;;;;;;24.60;7.45;;;;;;;;;;4967749;28;20041;-52
2022/10/24 04:50:48;;;;;;;29.15;7.90;;;;;;;;;;4967072;28;20078;-44
2022/10/24 04:53:14;;;;;;;25.05;7.90;;;;;;;;;;4962521;28;20395;-51
2022/10/24 04:55:39;;;;;;;23.35;8.32;;;;;;;;;;4967638;28;20035;-51
2022/10/24 04:58:04;;;;;;;23.90;7.70;;;;;;;;;;4964628;28;21071;-48
2022/10/24 05:00:30;;;;;;;29.98;7.80;;;;;;;;;;4966764;28;20038;-45
2022/10/24 05:02:55;;;;;;;27.58;9.18;;;;;;;;;;4965848;28;20042;-49
2022/10/24 05:05:21;;;;;;;31.38;7.25;;;;;;;;;;4968680;28;20027;-52
2022/10/24 05:07:46;;;;;;;28.42;8.57;;;;;;;;;;4966778;28;20395;-52
2022/10/24 05:10:13;;;;;;;20.60;7.32;;;;;;;;;;4964603;28;20065;-51
2022/10/24 05:12:39;;;;;;;25.85;8.18;;;;;;;;;;4967441;28;20071;-49
2022/10/24 05:15:06;;;;;;;30.27;9.27;;;;;;;;;;4967113;28;20524;-52
2022/10/24 05:17:31;;;;;;;28.05;8.45;;;;;;;;;;4967974;28;20058;-48
2022/10/24 05:19:57;;;;;;;27.92;7.85;;;;;;;;;;4967876;28;20053;-50
2022/10/24 05:22:22;;;;;;;29.00;8.73;;;;;;;;;;4966928;28;20050;-48
2022/10/24 05:24:48;;;;;;;28.98;8.70;;;;;;;;;;4964836;28;20467;-43
2022/10/24 05:27:14;;;;;;;27.50;7.82;;;;;;;;;;4965564;28;20035;-51
2022/10/24 05:29:39;;;;;;;24.25;8.25;;;;;;;;;;4967616;28;20117;-49
2022/10/24 05:32:05;;;;;;;22.13;7.20;;;;;;;;;;4967787;28;20043;-49
2022/10/24 05:34:30;;;;;;;29.23;8.32;;;;;;;;;;4967585;28;20073;-48
2022/10/24 05:36:55;;;;;;;22.90;8.43;;;;;;;;;;4966856;28;20043;-51
2022/10/24 05:39:21;;;;;;;22.52;7.97;;;;;;;;;;4966688;28;20035;-50
2022/10/24 05:41:47;;;;;;;22.73;8.13;;;;;;;;;;4967106;28;20514;-47
2022/10/24 05:44:13;;;;;;;18.35;7.80;;;;;;;;;;4969483;28;20101;-45
2022/10/24 05:46:39;;;;;;;29.25;8.60;;;;;;;;;;4966915;28;20384;-51
2022/10/24 05:49:04;;;;;;;21.98;8.50;;;;;;;;;;4968107;28;20070;-48
2022/10/24 05:51:30;;;;;;;33.13;8.05;;;;;;;;;;4968277;28;20491;-46
2022/10/24 05:53:55;;;;;;;34.35;8.70;;;;;;;;;;4966689;28;20031;-48
2022/10/24 05:56:21;;;;;;;24.83;8.05;;;;;;;;;;4967862;28;20614;-52
2022/10/24 05:58:46;;;;;;;22.98;7.80;;;;;;;;;;4966686;28;20543;-45
2022/10/24 06:01:12;;;;;;;28.73;7.88;;;;;;;;;;4968378;28;20047;-48
2022/10/24 06:03:38;;;;;;;22.98;7.57;;;;;;;;;;4966795;28;20511;-47
2022/10/24 06:06:07;;;;;;;26.60;8.43;;;;;;;;;;4964894;28;20451;-52
2022/10/24 06:08:37;;;;;;;33.10;8.77;;;;;;;;;;4964940;28;20026;-47
2022/10/24 06:11:03;;;;;;;26.90;8.57;;;;;;;;;;4966456;28;20033;-50
2022/10/24 06:13:29;;;;;;;23.05;8.10;;;;;;;;;;4970426;28;20443;-47
2022/10/24 06:15:55;;;;;;;31.13;9.23;;;;;;;;;;4969037;28;20058;-45
2022/10/24 06:18:20;;;;;;;23.27;8.38;;;;;;;;;;4970522;28;20039;-44
2022/10/24 06:20:46;;;;;;;24.42;8.13;;;;;;;;;;4970752;28;20035;-44
2022/10/24 06:23:11;;;;;;;26.17;8.07;;;;;;;;;;4965469;28;20891;-48
2022/10/24 06:25:39;;;;;;;25.30;8.45;;;;;;;;;;4970383;28;20031;-43
2022/10/24 06:28:06;;;;;;;18.17;7.53;;;;;;;;;;4964623;28;20125;-46
2022/10/24 06:30:32;;;;;;;33.72;8.52;;;;;;;;;;4967366;28;20042;-46
2022/10/24 06:32:57;;;;;;;27.35;9.23;;;;;;;;;;4965028;28;20046;-44
2022/10/24 06:35:22;;;;;;;16.23;7.40;;;;;;;;;;4964810;28;20030;-47
2022/10/24 06:37:48;;;;;;;27.58;8.80;;;;;;;;;;4967962;28;20046;-45
2022/10/24 06:40:13;;;;;;;24.52;7.90;;;;;;;;;;4965374;28;20498;-49
2022/10/24 06:42:39;;;;;;;32.13;8.63;;;;;;;;;;4969435;28;20043;-47
2022/10/24 06:45:04;;;;;;;35.53;10.25;;;;;;;;;;4970216;28;20051;-46
2022/10/24 06:47:31;;;;;;;31.17;9.07;;;;;;;;;;4969387;28;20089;-47
2022/10/24 06:49:57;;;;;;;26.33;8.73;;;;;;;;;;4971247;28;20035;-46
2022/10/24 06:52:22;;;;;;;28.73;8.65;;;;;;;;;;4965846;28;20045;-42
2022/10/24 06:54:48;;;;;;;16.05;7.97;;;;;;;;;;4969977;28;20030;-43
2022/10/24 06:57:13;;;;;;;25.60;8.52;;;;;;;;;;4967909;28;20525;-43
2022/10/24 06:59:39;;;;;;;27.30;8.35;;;;;;;;;;4967534;28;20053;-43
2022/10/24 07:02:04;;;;;;;34.80;8.48;;;;;;;;;;4967244;28;20051;-49
2022/10/24 07:04:30;;;;;;;25.83;8.13;;;;;;;;;;4967030;28;20045;-46
2022/10/24 07:06:55;;;;;;;25.80;7.88;;;;;;;;;;4967452;28;20133;-48
2022/10/24 07:09:20;;;;;;;29.63;7.82;;;;;;;;;;4966703;28;20497;-49
2022/10/24 07:11:46;;;;;;;28.70;8.55;;;;;;;;;;4967759;28;20118;-44
2022/10/24 07:14:11;;;;;;;27.88;9.32;;;;;;;;;;4968633;28;20030;-44
2022/10/24 07:16:36;;;;;;;28.10;8.35;;;;;;;;;;4969512;28;20043;-43
2022/10/24 07:19:03;;;;;;;25.23;8.25;;;;;;;;;;4968960;28;20015;-43
2022/10/24 07:21:30;;;;;;;25.13;8.57;;;;;;;;;;4967415;28;20401;-44
2022/10/24 07:23:56;;;;;;;23.00;8.07;;;;;;;;;;4968580;28;20058;-44
2022/10/24 07:26:23;;;;;;;20.85;7.78;;;;;;;;;;4967330;28;20050;-45
2022/10/24 07:28:53;;;;;;;35.35;8.60;;;;;;;;;;4969702;28;20054;-49
2022/10/24 07:31:24;;;;;;;33.75;8.07;;;;;;;;;;4968287;28;20820;-44
2022/10/24 07:33:51;;;;;;;21.75;7.82;;;;;;;;;;4969104;28;20035;-44
2022/10/24 07:36:19;;;;;;;26.58;7.97;;;;;;;;;;4968179;28;20027;-45
2022/10/24 07:38:48;;;;;;;31.80;8.32;;;;;;;;;;4966833;28;20078;-45
2022/10/24 07:41:13;;;;;;;28.83;8.57;;;;;;;;;;4967702;28;20483;-45
2022/10/24 07:43:39;;;;;;;25.50;8.20;;;;;;;;;;4968618;28;20042;-43
2022/10/24 07:46:08;;;;;;;29.10;7.57;;;;;;;;;;4968550;28;20087;-45
2022/10/24 07:48:35;;;;;;;33.72;8.23;;;;;;;;;;4968202;28;20038;-45
2022/10/24 07:51:04;;;;;;;36.15;7.22;;;;;;;;;;4967640;28;20019;-45
2022/10/24 07:53:30;;;;;;;31.27;7.97;;;;;;;;;;4966171;28;20042;-45
2022/10/24 07:55:57;;;;;;;25.33;7.28;;;;;;;;;;4968101;28;20031;-43
2022/10/24 07:58:22;;;;;;;30.38;8.70;;;;;;;;;;4969795;28;20023;-44
2022/10/24 08:00:48;;;;;;;33.00;8.18;;;;;;;;;;4966405;28;20038;-47
2022/10/24 08:03:13;;;;;;;34.55;8.85;;;;;;;;;;4967276;28;20031;-43
2022/10/24 08:05:39;;;;;;;18.38;7.05;;;;;;;;;;4967366;28;20601;-48
2022/10/24 08:08:05;;;;;;;32.85;8.32;;;;;;;;;;4969567;28;20070;-47
2022/10/24 08:10:31;;;;;;;26.25;7.93;;;;;;;;;;4968842;28;20079;-44
2022/10/24 08:12:57;;;;;;;25.52;8.07;;;;;;;;;;4967114;28;20046;-44
2022/10/24 08:15:24;;;;;;;23.45;9.05;;;;;;;;;;4966186;28;20030;-46
2022/10/24 08:17:49;;;;;;;26.35;8.18;;;;;;;;;;4965195;28;20034;-42
2022/10/24 08:20:15;;;;;;;33.03;7.80;;;;;;;;;;4967184;28;20042;-44
2022/10/24 08:22:40;;;;;;;23.80;8.38;;;;;;;;;;4967326;28;20045;-43
2022/10/24 08:25:08;;;;;;;31.33;8.35;;;;;;;;;;4969076;28;20035;-43
2022/10/24 08:27:34;;;;;;;18.58;7.97;;;;;;;;;;4967990;28;20570;-44
2022/10/24 08:29:59;;;;;;;23.17;8.25;;;;;;;;;;4966891;28;20039;-43
2022/10/24 08:32:24;;;;;;;25.63;7.82;;;;;;;;;;4966684;28;20043;-43
2022/10/24 08:34:50;;;;;;;22.77;7.40;;;;;;;;;;4968381;28;20038;-45
2022/10/24 08:37:15;;;;;;;28.05;8.07;;;;;;;;;;4968947;28;20046;-44
2022/10/24 08:39:41;;;;;;;26.77;8.25;;;;;;;;;;4967710;28;20035;-45
2022/10/24 08:42:10;;;;;;;36.67;8.93;;;;;;;;;;4967873;28;20093;-52
2022/10/24 08:44:40;;;;;;;28.90;7.90;;;;;;;;;;4965469;28;20082;-47
2022/10/24 08:47:27;;;;;;;34.67;8.80;;;;;;;;;;4968307;28;20051;-52
2022/10/24 08:50:20;;;;;;;28.77;8.07;;;;;;;;;;4983284;28;20117;-49
2022/10/24 08:52:55;;;;;;;26.88;7.55;;;;;;;;;;4967272;28;20039;-42
2022/10/24 08:55:24;;;;;;;27.05;7.40;;;;;;;;;;4966216;28;20842;-46
2022/10/24 08:58:00;;;;;;;26.33;7.65;;;;;;;;;;4967901;28;20043;-48
2022/10/24 09:00:30;;;;;;;29.48;8.23;;;;;;;;;;4967209;28;20480;-47
2022/10/24 09:03:25;;;;;;;32.90;8.30;;;;;;;;;;4962633;28;20450;-46
2022/10/24 09:05:53;;;;;;;26.38;8.15;;;;;;;;;;4966754;28;20045;-49
2022/10/24 09:08:29;;;;;;;34.17;7.57;;;;;;;;;;4967482;28;20053;-45
2022/10/24 09:10:57;;;;;;;37.33;8.48;;;;;;;;;;4964409;28;20035;-43
2022/10/24 09:13:25;;;;;;;29.80;7.40;;;;;;;;;;4967711;28;20027;-45
2022/10/24 09:15:50;;;;;;;37.15;8.38;;;;;;;;;;4968012;28;20109;-43
2022/10/24 09:18:22;;;;;;;31.88;7.70;;;;;;;;;;4968318;28;20030;-49
2022/10/24 09:20:49;;;;;;;33.35;7.05;;;;;;;;;;4970621;28;20031;-43
2022/10/24 09:23:16;;;;;;;33.45;8.07;;;;;;;;;;4969944;28;22052;-43
2022/10/24 09:25:46;;;;;;;31.65;7.13;;;;;;;;;;4969099;28;20411;-45
2022/10/24 09:28:12;;;;;;;42.83;7.47;;;;;;;;;;4968436;28;20102;-43
2022/10/24 09:30:38;;;;;;;27.58;7.53;;;;;;;;;;4972660;28;20031;-44
2022/10/24 09:33:23;;;;;;;32.08;7.47;;;;;;;;;;4970865;28;20053;-45
2022/10/24 09:35:51;;;;;;;38.65;7.57;;;;;;;;;;4971468;28;20030;-43
2022/10/24 09:38:26;;;;;;;44.97;8.27;;;;;;;;;;4970133;28;20039;-49
2022/10/24 09:40:54;;;;;;;30.95;6.65;;;;;;;;;;4967567;28;20058;-42
2022/10/24 09:43:32;;;;;;;38.45;7.05;;;;;;;;;;4969336;28;20026;-51
2022/10/24 09:46:11;;;;;;;30.73;6.80;;;;;;;;;;4971591;28;20042;-48
2022/10/24 09:48:58;;;;;;;25.83;6.43;;;;;;;;;;4970195;28;20090;-43
2022/10/24 09:51:25;;;;;;;40.35;6.95;;;;;;;;;;4968267;28;20046;-44
2022/10/24 09:54:16;;;;;;;36.28;7.80;;;;;;;;;;4969946;28;20051;-47
2022/10/24 09:56:42;;;;;;;39.45;7.75;;;;;;;;;;4967349;28;20034;-46
2022/10/24 09:59:31;;;;;;;29.20;6.93;;;;;;;;;;4970262;28;20089;-44
2022/10/24 10:02:18;;;;;;;38.53;6.97;;;;;;;;;;4969929;28;20050;-48
2022/10/24 10:04:45;;;;;;;28.48;6.38;;;;;;;;;;4968271;28;20056;-45
2022/10/24 10:07:14;;;;;;;33.10;7.07;;;;;;;;;;4970185;28;20090;-45
2022/10/24 10:09:49;;;;;;;25.30;6.90;;;;;;;;;;4971149;28;20019;-44
2022/10/24 10:12:35;;;;;;;35.90;7.25;;;;;;;;;;4969178;28;20046;-43
2022/10/24 10:15:17;;;;;;;42.85;6.90;;;;;;;;;;4971135;28;20041;-46
2022/10/24 10:17:51;;;;;;;37.22;7.53;;;;;;;;;;4969032;28;20054;-45
2022/10/24 10:20:41;;;;;;;29.85;7.35;;;;;;;;;;4967193;28;20121;-48
2022/10/24 10:23:24;;;;;;;31.67;6.72;;;;;;;;;;4970993;28;20046;-43
2022/10/24 10:26:02;;;;;;;27.13;6.68;;;;;;;;;;4967930;28;20034;-50
2022/10/24 10:28:27;;;;;;;28.13;5.75;;;;;;;;;;4969755;28;20051;-49
2022/10/24 10:30:58;;;;;;;30.65;6.10;;;;;;;;;;4967798;28;20480;-49
2022/10/24 10:33:35;;;;;;;28.40;6.10;;;;;;;;;;4971994;28;20027;-46
2022/10/24 10:36:23;;;;;;;21.83;6.28;;;;;;;;;;4966641;28;20391;-48
2022/10/24 10:38:56;;;;;;;29.50;6.45;;;;;;;;;;4970721;28;20126;-49
2022/10/24 10:41:33;;;;;;;31.10;6.80;;;;;;;;;;4968966;28;20045;-44
2022/10/24 10:44:47;;;;;;;24.42;6.85;;;;;;;;;;4969011;28;20039;-48
2022/10/24 10:47:36;;;;;;;27.83;5.63;;;;;;;;;;4926810;28;20099;-48
2022/10/24 10:50:17;;;;;;;28.13;6.90;;;;;;;;;;4928509;29;20127;-44
2022/10/24 10:52:48;;;;;;;25.03;6.57;;;;;;;;;;4927203;28;20054;-47
2022/10/24 10:55:43;;;;;;;31.80;6.30;;;;;;;;;;4928974;29;20035;-43
2022/10/24 10:58:24;;;;;;;22.05;6.60;;;;;;;;;;4921558;28;20051;-46
2022/10/24 11:00:52;;;;;;;23.48;6.88;;;;;;;;;;4932932;29;20047;-48
2022/10/24 11:03:39;;;;;;;22.17;6.57;;;;;;;;;;4931327;28;20497;-44
2022/10/24 11:06:15;;;;;;;21.98;6.38;;;;;;;;;;4930143;29;20112;-43
2022/10/24 11:08:46;;;;;;;37.92;7.13;;;;;;;;;;4926772;28;20032;-46
2022/10/24 11:11:33;;;;;;;26.25;5.72;;;;;;;;;;4929016;29;20063;-47
2022/10/24 11:14:23;;;;;;;20.95;5.60;;;;;;;;;;4928061;28;20048;-46
2022/10/24 11:16:50;;;;;;;20.30;6.07;;;;;;;;;;4926423;29;20048;-49
2022/10/24 11:20:03;;;;;;;19.10;5.32;;;;;;;;;;4927124;28;20040;-47
2022/10/24 11:22:53;;;;;;;24.70;6.35;;;;;;;;;;4945918;28;20043;-49
2022/10/24 11:25:21;;;;;;;19.83;5.35;;;;;;;;;;4968910;28;20440;-43
2022/10/24 11:27:58;;;;;;;25.40;6.25;;;;;;;;;;4967128;28;20469;-46
2022/10/24 11:30:54;;;;;;;18.60;5.45;;;;;;;;;;4969807;28;20112;-46
2022/10/24 11:33:24;;;;;;;24.98;5.40;;;;;;;;;;4967082;28;20039;-47
2022/10/24 11:36:07;;;;;;;18.67;5.50;;;;;;;;;;4969723;28;20057;-49
2022/10/24 11:38:38;;;;;;;18.88;5.47;;;;;;;;;;4968374;28;20045;-46
2022/10/24 11:41:22;;;;;;;28.88;6.53;;;;;;;;;;4970222;28;20027;-43
2022/10/24 11:43:53;;;;;;;19.80;6.28;;;;;;;;;;4966649;28;20491;-44
2022/10/24 11:46:22;;;;;;;38.28;7.40;;;;;;;;;;4968773;28;20054;-46
2022/10/24 11:48:57;;;;;;;30.35;5.88;;;;;;;;;;4967504;28;20058;-46
2022/10/24 11:51:48;;;;;;;24.55;6.90;;;;;;;;;;4967574;28;20364;-51
2022/10/24 11:54:56;;;;;;;22.65;5.82;;;;;;;;;;4966334;28;20066;-46
2022/10/24 11:57:27;;;;;;;28.95;6.97;;;;;;;;;;4953469;28;20051;-51
2022/10/24 11:59:54;;;;;;;28.25;6.68;;;;;;;;;;4950843;28;20055;-52
2022/10/24 12:02:22;;;;;;;32.05;6.95;;;;;;;;;;4951168;28;20058;-48
2022/10/24 12:05:06;;;;;;;27.58;6.40;;;;;;;;;;4954893;28;20110;-46
2022/10/24 12:07:57;;;;;;;19.67;6.10;;;;;;;;;;4951702;28;20046;-49
2022/10/24 12:10:41;;;;;;;24.47;5.60;;;;;;;;;;4956420;28;20526;-51
2022/10/24 12:13:30;;;;;;;23.27;5.75;;;;;;;;;;4955471;28;20467;-50
2022/10/24 12:16:19;;;;;;;32.70;7.15;;;;;;;;;;4953747;28;20082;-46
2022/10/24 12:18:50;;;;;;;27.85;6.70;;;;;;;;;;4955976;28;20047;-43
2022/10/24 12:21:24;;;;;;;30.33;7.07;;;;;;;;;;4958171;28;20039;-50
2022/10/24 12:23:58;;;;;;;23.83;6.25;;;;;;;;;;4957284;28;20042;-46
2022/10/24 12:26:34;;;;;;;24.85;6.13;;;;;;;;;;4953339;28;20035;-47
2022/10/24 12:29:02;;;;;;;31.00;6.78;;;;;;;;;;4950364;28;20051;-51
2022/10/24 12:31:32;;;;;;;27.27;6.20;;;;;;;;;;4956258;28;20102;-52
2022/10/24 12:34:19;;;;;;;29.02;6.53;;;;;;;;;;4959565;28;20034;-50
2022/10/24 12:37:10;;;;;;;42.60;7.32;;;;;;;;;;4969196;28;20106;-50
2022/10/24 12:39:43;;;;;;;35.75;7.53;;;;;;;;;;4967020;28;20073;-45
2022/10/24 12:42:35;;;;;;;32.75;6.25;;;;;;;;;;4966743;28;20043;-44
2022/10/24 12:45:00;;;;;;;27.10;5.95;;;;;;;;;;4964428;28;20078;-44
2022/10/24 12:47:29;;;;;;;24.48;5.93;;;;;;;;;;4964182;28;20226;-45
2022/10/24 12:49:56;;;;;;;30.35;6.45;;;;;;;;;;4963540;28;20051;-49
2022/10/24 12:52:30;;;;;;;28.52;6.13;;;;;;;;;;4965849;28;20038;-48
2022/10/24 12:54:57;;;;;;;44.10;7.00;;;;;;;;;;4963085;28;20925;-49
2022/10/24 12:57:26;;;;;;;31.55;6.70;;;;;;;;;;4964905;28;20077;-51
2022/10/24 12:59:55;;;;;;;35.13;6.53;;;;;;;;;;4961675;28;20039;-48
2022/10/24 13:02:27;;;;;;;26.52;6.35;;;;;;;;;;4965784;28;20035;-45
2022/10/24 13:05:14;;;;;;;35.70;7.00;;;;;;;;;;4963151;28;20116;-45
2022/10/24 13:07:51;;;;;;;33.53;6.70;;;;;;;;;;4963874;28;20038;-44
2022/10/24 13:10:26;;;;;;;28.15;6.97;;;;;;;;;;4962719;28;20098;-49
2022/10/24 13:13:00;;;;;;;30.60;6.43;;;;;;;;;;4965200;28;20043;-43
2022/10/24 13:15:35;;;;;;;24.60;5.72;;;;;;;;;;4965981;28;20047;-49
2022/10/24 13:18:27;;;;;;;44.60;6.60;;;;;;;;;;4964865;28;21187;-51
2022/10/24 13:21:16;;;;;;;33.35;6.88;;;;;;;;;;4965446;28;20035;-48
2022/10/24 13:23:44;;;;;;;31.85;6.05;;;;;;;;;;4936274;29;20052;-50
2022/10/24 13:26:38;;;;;;;36.00;7.32;;;;;;;;;;4937547;29;20055;-45
2022/10/24 13:29:05;;;;;;;31.67;7.07;;;;;;;;;;4932589;29;20042;-45
2022/10/24 13:31:33;;;;;;;26.35;5.93;;;;;;;;;;4930615;29;20500;-44
2022/10/24 13:34:17;;;;;;;35.85;6.45;;;;;;;;;;4932487;29;20086;-46
2022/10/24 13:36:45;;;;;;;28.45;6.97;;;;;;;;;;4936062;29;20048;-47
2022/10/24 13:39:17;;;;;;;24.75;6.05;;;;;;;;;;4939959;29;20039;-43
2022/10/24 13:41:49;;;;;;;32.50;6.72;;;;;;;;;;4931374;29;20032;-43
2022/10/24 13:44:35;;;;;;;24.30;6.63;;;;;;;;;;4938483;28;20051;-50
2022/10/24 13:47:10;;;;;;;32.10;6.15;;;;;;;;;;4934852;29;20048;-48
2022/10/24 13:49:54;;;;;;;37.22;7.40;;;;;;;;;;4935434;29;20039;-44
2022/10/24 13:52:31;;;;;;;34.95;6.57;;;;;;;;;;4938406;29;20504;-46
2022/10/24 13:55:12;;;;;;;33.67;6.82;;;;;;;;;;4932410;29;20060;-43
2022/10/24 13:57:59;;;;;;;26.20;6.22;;;;;;;;;;4935731;29;20046;-43
2022/10/24 14:00:31;;;;;;;22.50;5.43;;;;;;;;;;4942700;28;20049;-44
2022/10/24 14:03:01;;;;;;;21.50;5.93;;;;;;;;;;4968011;28;20039;-51
2022/10/24 14:05:38;;;;;;;28.58;5.93;;;;;;;;;;4970879;28;20165;-43
2022/10/24 14:08:06;;;;;;;35.08;6.38;;;;;;;;;;4969479;28;20126;-48
2022/10/24 14:10:32;;;;;;;31.13;6.28;;;;;;;;;;4970744;28;20019;-46
2022/10/24 14:12:59;;;;;;;27.13;5.53;;;;;;;;;;4971515;28;20487;-49
2022/10/24 14:15:30;;;;;;;27.65;5.78;;;;;;;;;;4971005;28;20023;-43
2022/10/24 14:18:07;;;;;;;32.38;5.90;;;;;;;;;;4969430;28;20054;-43
2022/10/24 14:20:34;;;;;;;22.23;6.32;;;;;;;;;;4983634;28;20031;-45
2022/10/24 14:23:00;;;;;;;29.63;6.03;;;;;;;;;;4968316;28;22326;-45
2022/10/24 14:25:35;;;;;;;34.85;7.20;;;;;;;;;;4970977;28;20027;-44
2022/10/24 14:28:16;;;;;;;28.40;6.50;;;;;;;;;;4969662;28;20039;-45
2022/10/24 14:30:54;;;;;;;34.75;7.03;;;;;;;;;;4970933;28;20026;-44
2022/10/24 14:33:23;;;;;;;37.35;7.40;;;;;;;;;;4966940;28;20054;-45
2022/10/24 14:35:50;;;;;;;33.53;6.93;;;;;;;;;;4968839;28;20077;-43
2022/10/24 14:38:17;;;;;;;33.65;7.00;;;;;;;;;;4970035;28;20050;-49
2022/10/24 14:40:44;;;;;;;27.63;6.80;;;;;;;;;;4970604;28;20026;-46
2022/10/24 14:43:25;;;;;;;24.48;5.70;;;;;;;;;;4970323;28;20058;-49
2022/10/24 14:46:08;;;;;;;39.47;6.13;;;;;;;;;;4970763;28;20479;-46
2022/10/24 14:48:35;;;;;;;30.48;7.35;;;;;;;;;;4969854;28;20096;-47
2022/10/24 14:51:09;;;;;;;23.55;5.47;;;;;;;;;;4970841;28;20019;-45
2022/10/24 14:53:36;;;;;;;26.88;6.43;;;;;;;;;;4969969;28;20097;-46